sensor_id;sensor_type;location;lat;lon;timestamp;temperature;humidity
1301;DHT22;59099;48.806;9.160;2022-12-13T00:01:14;-6.00;99.90
1301;DHT22;59099;48.806;9.160;2022-12-13T00:03:40;-6.10;99.90
1301;DHT22;59099;48.806;9.160;2022-12-13T00:06:08;-6.20;99.90
1301;DHT22;59099;48.806;9.160;2022-12-13T00:08:34;-6.10;99.90
1301;DHT22;59099;48.806;9.160;2022-12-13T00:11:01;-6.10;99.90
1301;DHT22;59099;48.806;9.160;2022-12-13T00:13:29;-6.10;99.90
1301;DHT22;59099;48.806;9.160;2022-12-13T00:15:59;-6.10;99.90
1301;DHT22;59099;48.806;9.160;2022-12-13T00:18:26;-6.20;99.90
1301;DHT22;59099;48.806;9.160;2022-12-13T00:20:52;-6.20;99.90
1301;DHT22;59099;48.806;9.160;2022-12-13T00:23:18;-6.20;99.90
1301;DHT22;59099;48.806;9.160;2022-12-13T00:25:47;-6.20;99.90
1301;DHT22;59099;48.806;9.160;2022-12-13T00:28:14;-6.20;99.90
1301;DHT22;59099;48.806;9.160;2022-12-13T00:30:41;-6.20;99.90
1301;DHT22;59099;48.806;9.160;2022-12-13T00:33:07;-6.20;99.90
1301;DHT22;59099;48.806;9.160;2022-12-13T00:35:39;-6.20;99.90
1301;DHT22;59099;48.806;9.160;2022-12-13T00:38:05;-6.30;99.90
1301;DHT22;59099;48.806;9.160;2022-12-13T00:40:30;-6.30;99.90
1301;DHT22;59099;48.806;9.160;2022-12-13T00:42:56;-6.30;99.90
1301;DHT22;59099;48.806;9.160;2022-12-13T00:45:22;-6.30;99.90
1301;DHT22;59099;48.806;9.160;2022-12-13T00:47:47;-6.30;99.90
1301;DHT22;59099;48.806;9.160;2022-12-13T00:50:13;-6.30;99.90
1301;DHT22;59099;48.806;9.160;2022-12-13T00:52:39;-6.30;99.90
1301;DHT22;59099;48.806;9.160;2022-12-13T00:55:08;-6.30;99.90
1301;DHT22;59099;48.806;9.160;2022-12-13T00:57:34;-6.30;99.90
1301;DHT22;59099;48.806;9.160;2022-12-13T00:59:59;-6.40;99.90
1301;DHT22;59099;48.806;9.160;2022-12-13T01:02:26;-6.40;99.90
1301;DHT22;59099;48.806;9.160;2022-12-13T01:04:53;-6.40;99.90
1301;DHT22;59099;48.806;9.160;2022-12-13T01:07:19;-6.40;99.90
1301;DHT22;59099;48.806;9.160;2022-12-13T01:09:44;-6.40;99.90
1301;DHT22;59099;48.806;9.160;2022-12-13T01:12:10;-6.40;99.90
1301;DHT22;59099;48.806;9.160;2022-12-13T01:14:38;-6.50;99.90
1301;DHT22;59099;48.806;9.160;2022-12-13T01:17:04;-6.50;99.90
1301;DHT22;59099;48.806;9.160;2022-12-13T01:19:30;-6.40;99.90
1301;DHT22;59099;48.806;9.160;2022-12-13T01:22:00;-6.50;99.90
1301;DHT22;59099;48.806;9.160;2022-12-13T01:24:27;-6.50;99.90
1301;DHT22;59099;48.806;9.160;2022-12-13T01:26:53;-6.50;99.90
1301;DHT22;59099;48.806;9.160;2022-12-13T01:29:20;-6.50;99.90
1301;DHT22;59099;48.806;9.160;2022-12-13T01:31:46;-6.40;99.90
1301;DHT22;59099;48.806;9.160;2022-12-13T01:34:15;-6.50;99.90
1301;DHT22;59099;48.806;9.160;2022-12-13T01:36:43;-6.60;99.90
1301;DHT22;59099;48.806;9.160;2022-12-13T01:39:10;-6.50;99.90
1301;DHT22;59099;48.806;9.160;2022-12-13T01:41:37;-6.60;99.90
1301;DHT22;59099;48.806;9.160;2022-12-13T01:44:55;-6.70;99.90
1301;DHT22;59099;48.806;9.160;2022-12-13T01:46:49;-6.80;99.90
1301;DHT22;59099;48.806;9.160;2022-12-13T01:49:16;-6.80;99.90
1301;DHT22;59099;48.806;9.160;2022-12-13T01:51:47;-6.80;99.90
1301;DHT22;59099;48.806;9.160;2022-12-13T01:54:16;-6.80;99.90
1301;DHT22;59099;48.806;9.160;2022-12-13T01:56:46;-6.70;99.90
1301;DHT22;59099;48.806;9.160;2022-12-13T01:59:14;-6.80;99.90
1301;DHT22;59099;48.806;9.160;2022-12-13T02:01:46;-6.80;99.90
1301;DHT22;59099;48.806;9.160;2022-12-13T02:04:20;-6.80;99.90
1301;DHT22;59099;48.806;9.160;2022-12-13T02:06:49;-6.80;99.90
1301;DHT22;59099;48.806;9.160;2022-12-13T02:09:15;-6.80;99.90
1301;DHT22;59099;48.806;9.160;2022-12-13T02:11:42;-6.80;99.90
1301;DHT22;59099;48.806;9.160;2022-12-13T02:14:09;-6.80;99.90
1301;DHT22;59099;48.806;9.160;2022-12-13T02:17:09;-6.80;99.90
1301;DHT22;59099;48.806;9.160;2022-12-13T02:23:06;-6.90;99.90
1301;DHT22;59099;48.806;9.160;2022-12-13T02:28:31;-6.80;99.90
1301;DHT22;59099;48.806;9.160;2022-12-13T02:31:09;-6.80;99.90
1301;DHT22;59099;48.806;9.160;2022-12-13T02:33:52;-6.90;99.90
1301;DHT22;59099;48.806;9.160;2022-12-13T02:36:48;-7.00;99.90
1301;DHT22;59099;48.806;9.160;2022-12-13T02:39:22;-7.00;99.90
1301;DHT22;59099;48.806;9.160;2022-12-13T02:41:52;-7.00;99.90
1301;DHT22;59099;48.806;9.160;2022-12-13T02:44:26;-7.00;99.90
1301;DHT22;59099;48.806;9.160;2022-12-13T02:47:04;-7.00;99.90
1301;DHT22;59099;48.806;9.160;2022-12-13T02:49:38;-7.00;99.90
1301;DHT22;59099;48.806;9.160;2022-12-13T02:52:09;-7.00;99.90
1301;DHT22;59099;48.806;9.160;2022-12-13T02:54:37;-7.00;99.90
1301;DHT22;59099;48.806;9.160;2022-12-13T02:57:02;-7.00;99.90
1301;DHT22;59099;48.806;9.160;2022-12-13T02:59:36;-7.00;99.90
1301;DHT22;59099;48.806;9.160;2022-12-13T03:04:52;-7.00;99.90
1301;DHT22;59099;48.806;9.160;2022-12-13T03:08:01;-7.00;99.90
1301;DHT22;59099;48.806;9.160;2022-12-13T03:10:44;-7.00;99.90
1301;DHT22;59099;48.806;9.160;2022-12-13T03:13:21;-7.00;99.90
1301;DHT22;59099;48.806;9.160;2022-12-13T03:16:11;-7.00;99.90
1301;DHT22;59099;48.806;9.160;2022-12-13T03:18:38;-7.00;99.90
1301;DHT22;59099;48.806;9.160;2022-12-13T03:21:08;-7.00;99.90
1301;DHT22;59099;48.806;9.160;2022-12-13T03:23:35;-7.10;99.90
1301;DHT22;59099;48.806;9.160;2022-12-13T03:26:10;-7.00;99.90
1301;DHT22;59099;48.806;9.160;2022-12-13T03:28:45;-7.10;99.90
1301;DHT22;59099;48.806;9.160;2022-12-13T03:31:11;-7.10;99.90
1301;DHT22;59099;48.806;9.160;2022-12-13T03:33:37;-7.20;99.90
1301;DHT22;59099;48.806;9.160;2022-12-13T03:36:04;-7.20;99.90
1301;DHT22;59099;48.806;9.160;2022-12-13T03:38:30;-7.10;99.90
1301;DHT22;59099;48.806;9.160;2022-12-13T03:41:00;-7.20;99.90
1301;DHT22;59099;48.806;9.160;2022-12-13T03:43:27;-7.20;99.90
1301;DHT22;59099;48.806;9.160;2022-12-13T03:45:54;-7.30;99.90
1301;DHT22;59099;48.806;9.160;2022-12-13T03:48:21;-7.30;99.90
1301;DHT22;59099;48.806;9.160;2022-12-13T03:50:47;-7.30;99.90
1301;DHT22;59099;48.806;9.160;2022-12-13T03:53:13;-7.30;99.90
1301;DHT22;59099;48.806;9.160;2022-12-13T03:55:39;-7.30;99.90
1301;DHT22;59099;48.806;9.160;2022-12-13T03:58:05;-7.40;99.90
1301;DHT22;59099;48.806;9.160;2022-12-13T04:00:31;-7.30;99.90
1301;DHT22;59099;48.806;9.160;2022-12-13T04:02:57;-7.30;99.90
1301;DHT22;59099;48.806;9.160;2022-12-13T04:05:22;-7.30;99.90
1301;DHT22;59099;48.806;9.160;2022-12-13T04:07:48;-7.20;99.90
1301;DHT22;59099;48.806;9.160;2022-12-13T04:10:15;-7.30;99.90
1301;DHT22;59099;48.806;9.160;2022-12-13T04:12:40;-7.30;99.90
1301;DHT22;59099;48.806;9.160;2022-12-13T04:15:25;-7.40;99.90
1301;DHT22;59099;48.806;9.160;2022-12-13T04:17:50;-7.40;99.90
1301;DHT22;59099;48.806;9.160;2022-12-13T04:20:19;-7.40;99.90
1301;DHT22;59099;48.806;9.160;2022-12-13T04:22:45;-7.40;99.90
1301;DHT22;59099;48.806;9.160;2022-12-13T04:25:11;-7.40;99.90
1301;DHT22;59099;48.806;9.160;2022-12-13T04:27:37;-7.40;99.90
1301;DHT22;59099;48.806;9.160;2022-12-13T04:30:04;-7.40;99.90
1301;DHT22;59099;48.806;9.160;2022-12-13T04:32:30;-7.40;99.90
1301;DHT22;59099;48.806;9.160;2022-12-13T04:34:56;-7.40;99.90
1301;DHT22;59099;48.806;9.160;2022-12-13T04:37:22;-7.40;99.90
1301;DHT22;59099;48.806;9.160;2022-12-13T04:39:48;-7.50;99.90
1301;DHT22;59099;48.806;9.160;2022-12-13T04:42:15;-7.50;99.90
1301;DHT22;59099;48.806;9.160;2022-12-13T04:44:40;-7.50;99.90
1301;DHT22;59099;48.806;9.160;2022-12-13T04:47:06;-7.50;99.90
1301;DHT22;59099;48.806;9.160;2022-12-13T04:49:32;-7.50;99.90
1301;DHT22;59099;48.806;9.160;2022-12-13T04:51:58;-7.50;99.90
1301;DHT22;59099;48.806;9.160;2022-12-13T04:54:24;-7.40;99.90
1301;DHT22;59099;48.806;9.160;2022-12-13T04:56:50;-7.50;99.90
1301;DHT22;59099;48.806;9.160;2022-12-13T04:59:16;-7.40;99.90
1301;DHT22;59099;48.806;9.160;2022-12-13T05:01:42;-7.50;99.90
1301;DHT22;59099;48.806;9.160;2022-12-13T05:04:07;-7.50;99.90
1301;DHT22;59099;48.806;9.160;2022-12-13T05:06:33;-7.50;99.90
1301;DHT22;59099;48.806;9.160;2022-12-13T05:09:00;-7.60;99.90
1301;DHT22;59099;48.806;9.160;2022-12-13T05:11:26;-7.60;99.90
1301;DHT22;59099;48.806;9.160;2022-12-13T05:13:52;-7.60;99.90
1301;DHT22;59099;48.806;9.160;2022-12-13T05:16:18;-7.60;99.90
1301;DHT22;59099;48.806;9.160;2022-12-13T05:18:43;-7.60;99.90
1301;DHT22;59099;48.806;9.160;2022-12-13T05:21:10;-7.60;99.90
1301;DHT22;59099;48.806;9.160;2022-12-13T05:23:37;-7.60;99.90
1301;DHT22;59099;48.806;9.160;2022-12-13T05:26:03;-7.60;99.90
1301;DHT22;59099;48.806;9.160;2022-12-13T05:28:29;-7.60;99.90
1301;DHT22;59099;48.806;9.160;2022-12-13T05:31:04;-7.70;99.90
1301;DHT22;59099;48.806;9.160;2022-12-13T05:33:31;-7.60;99.90
1301;DHT22;59099;48.806;9.160;2022-12-13T05:35:57;-7.60;99.90
1301;DHT22;59099;48.806;9.160;2022-12-13T05:38:23;-7.70;99.90
1301;DHT22;59099;48.806;9.160;2022-12-13T05:40:48;-7.60;99.90
1301;DHT22;59099;48.806;9.160;2022-12-13T05:43:14;-7.60;99.90
1301;DHT22;59099;48.806;9.160;2022-12-13T05:45:40;-7.60;99.90
1301;DHT22;59099;48.806;9.160;2022-12-13T05:48:06;-7.60;99.90
1301;DHT22;59099;48.806;9.160;2022-12-13T05:50:31;-7.60;99.90
1301;DHT22;59099;48.806;9.160;2022-12-13T05:52:57;-7.60;99.90
1301;DHT22;59099;48.806;9.160;2022-12-13T05:55:23;-7.60;99.90
1301;DHT22;59099;48.806;9.160;2022-12-13T05:57:49;-7.60;99.90
1301;DHT22;59099;48.806;9.160;2022-12-13T06:00:15;-7.60;99.90
1301;DHT22;59099;48.806;9.160;2022-12-13T06:02:43;-7.60;99.90
1301;DHT22;59099;48.806;9.160;2022-12-13T06:05:11;-7.60;99.90
1301;DHT22;59099;48.806;9.160;2022-12-13T06:07:38;-7.60;99.90
1301;DHT22;59099;48.806;9.160;2022-12-13T06:10:05;-7.60;99.90
1301;DHT22;59099;48.806;9.160;2022-12-13T06:12:33;-7.60;99.90
1301;DHT22;59099;48.806;9.160;2022-12-13T06:14:59;-7.70;99.90
1301;DHT22;59099;48.806;9.160;2022-12-13T06:17:31;-7.70;99.90
1301;DHT22;59099;48.806;9.160;2022-12-13T06:19:58;-7.80;99.90
1301;DHT22;59099;48.806;9.160;2022-12-13T06:22:25;-7.70;99.90
1301;DHT22;59099;48.806;9.160;2022-12-13T06:24:51;-7.70;99.90
1301;DHT22;59099;48.806;9.160;2022-12-13T06:27:17;-7.80;99.90
1301;DHT22;59099;48.806;9.160;2022-12-13T06:29:43;-7.70;99.90
1301;DHT22;59099;48.806;9.160;2022-12-13T06:32:09;-7.80;99.90
1301;DHT22;59099;48.806;9.160;2022-12-13T06:34:35;-7.80;99.90
1301;DHT22;59099;48.806;9.160;2022-12-13T06:37:03;-7.90;99.90
1301;DHT22;59099;48.806;9.160;2022-12-13T06:39:29;-7.80;99.90
1301;DHT22;59099;48.806;9.160;2022-12-13T06:41:55;-7.80;99.90
1301;DHT22;59099;48.806;9.160;2022-12-13T06:44:21;-7.80;99.90
1301;DHT22;59099;48.806;9.160;2022-12-13T06:46:46;-7.80;99.90
1301;DHT22;59099;48.806;9.160;2022-12-13T06:49:12;-7.80;99.90
1301;DHT22;59099;48.806;9.160;2022-12-13T06:51:38;-7.80;99.90
1301;DHT22;59099;48.806;9.160;2022-12-13T06:54:04;-7.80;99.90
1301;DHT22;59099;48.806;9.160;2022-12-13T06:56:30;-7.80;99.90
1301;DHT22;59099;48.806;9.160;2022-12-13T06:58:57;-7.90;99.90
1301;DHT22;59099;48.806;9.160;2022-12-13T07:01:23;-7.90;99.90
1301;DHT22;59099;48.806;9.160;2022-12-13T07:03:50;-8.00;99.90
1301;DHT22;59099;48.806;9.160;2022-12-13T07:06:18;-8.00;99.90
1301;DHT22;59099;48.806;9.160;2022-12-13T07:08:52;-8.00;99.90
1301;DHT22;59099;48.806;9.160;2022-12-13T07:11:21;-8.00;99.90
1301;DHT22;59099;48.806;9.160;2022-12-13T07:13:48;-8.00;99.90
1301;DHT22;59099;48.806;9.160;2022-12-13T07:16:14;-7.90;99.90
1301;DHT22;59099;48.806;9.160;2022-12-13T07:18:40;-7.90;99.90
1301;DHT22;59099;48.806;9.160;2022-12-13T07:21:07;-8.00;99.90
1301;DHT22;59099;48.806;9.160;2022-12-13T07:23:34;-7.90;99.90
1301;DHT22;59099;48.806;9.160;2022-12-13T07:26:03;-8.00;99.90
1301;DHT22;59099;48.806;9.160;2022-12-13T07:28:35;-8.00;99.90
1301;DHT22;59099;48.806;9.160;2022-12-13T07:31:06;-8.00;99.90
1301;DHT22;59099;48.806;9.160;2022-12-13T07:33:33;-7.90;99.90
1301;DHT22;59099;48.806;9.160;2022-12-13T07:38:29;-7.80;99.90
1301;DHT22;59099;48.806;9.160;2022-12-13T07:40:56;-7.70;99.90
1301;DHT22;59099;48.806;9.160;2022-12-13T07:43:23;-7.70;99.90
1301;DHT22;59099;48.806;9.160;2022-12-13T07:45:50;-7.70;99.90
1301;DHT22;59099;48.806;9.160;2022-12-13T07:48:17;-7.60;99.90
1301;DHT22;59099;48.806;9.160;2022-12-13T07:50:43;-7.60;99.90
1301;DHT22;59099;48.806;9.160;2022-12-13T07:53:09;-7.60;99.90
1301;DHT22;59099;48.806;9.160;2022-12-13T07:55:36;-7.50;99.90
1301;DHT22;59099;48.806;9.160;2022-12-13T07:58:17;-7.50;99.90
1301;DHT22;59099;48.806;9.160;2022-12-13T08:00:44;-7.50;99.90
1301;DHT22;59099;48.806;9.160;2022-12-13T08:03:10;-7.40;99.90
1301;DHT22;59099;48.806;9.160;2022-12-13T08:05:36;-7.40;99.90
1301;DHT22;59099;48.806;9.160;2022-12-13T08:08:04;-7.30;99.90
1301;DHT22;59099;48.806;9.160;2022-12-13T08:10:31;-7.30;99.90
1301;DHT22;59099;48.806;9.160;2022-12-13T08:12:57;-7.20;99.90
1301;DHT22;59099;48.806;9.160;2022-12-13T08:15:23;-7.20;99.90
1301;DHT22;59099;48.806;9.160;2022-12-13T08:17:50;-7.10;99.90
1301;DHT22;59099;48.806;9.160;2022-12-13T08:20:16;-7.00;99.90
1301;DHT22;59099;48.806;9.160;2022-12-13T08:22:42;-7.00;99.90
1301;DHT22;59099;48.806;9.160;2022-12-13T08:25:08;-6.90;99.90
1301;DHT22;59099;48.806;9.160;2022-12-13T08:27:35;-6.90;99.90
1301;DHT22;59099;48.806;9.160;2022-12-13T08:30:00;-6.80;99.90
1301;DHT22;59099;48.806;9.160;2022-12-13T08:32:26;-6.70;99.90
1301;DHT22;59099;48.806;9.160;2022-12-13T08:34:52;-6.60;99.90
1301;DHT22;59099;48.806;9.160;2022-12-13T08:37:17;-6.60;99.90
1301;DHT22;59099;48.806;9.160;2022-12-13T08:39:43;-6.50;99.90
1301;DHT22;59099;48.806;9.160;2022-12-13T08:42:14;-6.50;99.90
1301;DHT22;59099;48.806;9.160;2022-12-13T08:44:41;-6.50;99.90
1301;DHT22;59099;48.806;9.160;2022-12-13T08:47:07;-6.40;99.90
1301;DHT22;59099;48.806;9.160;2022-12-13T08:49:33;-6.30;99.90
1301;DHT22;59099;48.806;9.160;2022-12-13T08:51:59;-6.20;99.90
1301;DHT22;59099;48.806;9.160;2022-12-13T08:54:25;-6.20;99.90
1301;DHT22;59099;48.806;9.160;2022-12-13T08:56:51;-6.10;99.90
1301;DHT22;59099;48.806;9.160;2022-12-13T08:59:17;-6.10;99.90
1301;DHT22;59099;48.806;9.160;2022-12-13T09:01:43;-6.10;99.90
1301;DHT22;59099;48.806;9.160;2022-12-13T09:04:09;-6.00;99.90
1301;DHT22;59099;48.806;9.160;2022-12-13T09:06:35;-5.90;99.90
1301;DHT22;59099;48.806;9.160;2022-12-13T09:09:02;-5.70;99.90
1301;DHT22;59099;48.806;9.160;2022-12-13T09:11:28;-5.70;99.90
1301;DHT22;59099;48.806;9.160;2022-12-13T09:13:54;-5.60;99.90
1301;DHT22;59099;48.806;9.160;2022-12-13T09:16:20;-5.50;99.90
1301;DHT22;59099;48.806;9.160;2022-12-13T09:18:51;-5.30;99.90
1301;DHT22;59099;48.806;9.160;2022-12-13T09:21:18;-5.20;99.90
1301;DHT22;59099;48.806;9.160;2022-12-13T09:23:44;-5.00;99.90
1301;DHT22;59099;48.806;9.160;2022-12-13T09:26:12;-4.90;99.90
1301;DHT22;59099;48.806;9.160;2022-12-13T09:28:39;-4.70;99.90
1301;DHT22;59099;48.806;9.160;2022-12-13T09:31:09;-4.50;99.90
1301;DHT22;59099;48.806;9.160;2022-12-13T09:33:36;-4.30;99.90
1301;DHT22;59099;48.806;9.160;2022-12-13T09:36:04;-4.00;99.90
1301;DHT22;59099;48.806;9.160;2022-12-13T09:38:34;-3.80;99.90
1301;DHT22;59099;48.806;9.160;2022-12-13T09:43:39;-3.50;99.90
1301;DHT22;59099;48.806;9.160;2022-12-13T09:46:12;-3.30;99.90
1301;DHT22;59099;48.806;9.160;2022-12-13T09:48:40;-3.10;99.90
1301;DHT22;59099;48.806;9.160;2022-12-13T09:51:09;-2.90;99.90
1301;DHT22;59099;48.806;9.160;2022-12-13T09:53:35;-2.70;99.90
1301;DHT22;59099;48.806;9.160;2022-12-13T09:56:01;-2.50;99.90
1301;DHT22;59099;48.806;9.160;2022-12-13T09:58:29;-2.30;99.90
1301;DHT22;59099;48.806;9.160;2022-12-13T10:00:57;-2.20;99.90
1301;DHT22;59099;48.806;9.160;2022-12-13T10:03:24;-2.00;99.90
1301;DHT22;59099;48.806;9.160;2022-12-13T10:05:57;-1.80;99.90
1301;DHT22;59099;48.806;9.160;2022-12-13T10:08:38;-1.60;99.90
1301;DHT22;59099;48.806;9.160;2022-12-13T10:11:05;-1.40;99.90
1301;DHT22;59099;48.806;9.160;2022-12-13T10:13:38;-1.20;99.90
1301;DHT22;59099;48.806;9.160;2022-12-13T10:16:17;-1.10;99.90
1301;DHT22;59099;48.806;9.160;2022-12-13T10:18:43;-0.90;99.90
1301;DHT22;59099;48.806;9.160;2022-12-13T10:21:13;-0.80;99.90
1301;DHT22;59099;48.806;9.160;2022-12-13T10:23:40;-0.70;99.90
1301;DHT22;59099;48.806;9.160;2022-12-13T10:26:11;-0.60;99.90
1301;DHT22;59099;48.806;9.160;2022-12-13T10:28:39;-0.60;99.90
1301;DHT22;59099;48.806;9.160;2022-12-13T10:31:06;-0.50;99.90
1301;DHT22;59099;48.806;9.160;2022-12-13T10:33:40;-0.50;99.90
1301;DHT22;59099;48.806;9.160;2022-12-13T10:36:30;-0.40;99.90
1301;DHT22;59099;48.806;9.160;2022-12-13T10:38:56;-0.40;99.90
1301;DHT22;59099;48.806;9.160;2022-12-13T10:41:32;-0.30;99.90
1301;DHT22;59099;48.806;9.160;2022-12-13T10:44:13;-0.30;99.90
1301;DHT22;59099;48.806;9.160;2022-12-13T10:46:49;-0.20;99.90
1301;DHT22;59099;48.806;9.160;2022-12-13T10:49:21;0.00;99.90
1301;DHT22;59099;48.806;9.160;2022-12-13T10:51:48;0.20;99.90
1301;DHT22;59099;48.806;9.160;2022-12-13T10:54:26;0.40;99.90
1301;DHT22;59099;48.806;9.160;2022-12-13T10:56:54;0.40;99.90
1301;DHT22;59099;48.806;9.160;2022-12-13T10:59:38;0.40;99.90
1301;DHT22;59099;48.806;9.160;2022-12-13T11:02:34;0.50;99.90
1301;DHT22;59099;48.806;9.160;2022-12-13T11:05:24;0.60;99.90
1301;DHT22;59099;48.806;9.160;2022-12-13T11:07:51;0.90;99.90
1301;DHT22;59099;48.806;9.160;2022-12-13T11:10:26;1.00;99.90
1301;DHT22;59099;48.806;9.160;2022-12-13T11:12:58;1.10;99.90
1301;DHT22;59099;48.806;9.160;2022-12-13T11:15:25;1.50;99.90
1301;DHT22;59099;48.806;9.160;2022-12-13T11:18:00;1.70;99.90
1301;DHT22;59099;48.806;9.160;2022-12-13T11:20:31;1.90;99.90
1301;DHT22;59099;48.806;9.160;2022-12-13T11:23:18;2.10;99.90
1301;DHT22;59099;48.806;9.160;2022-12-13T11:25:48;2.30;99.90
1301;DHT22;59099;48.806;9.160;2022-12-13T11:28:43;2.70;99.90
1301;DHT22;59099;48.806;9.160;2022-12-13T11:34:17;3.80;99.90
1301;DHT22;59099;48.806;9.160;2022-12-13T11:39:31;4.00;99.90
1301;DHT22;59099;48.806;9.160;2022-12-13T11:44:58;4.00;99.90
1301;DHT22;59099;48.806;9.160;2022-12-13T11:47:58;3.80;99.90
1301;DHT22;59099;48.806;9.160;2022-12-13T11:50:38;3.90;99.90
1301;DHT22;59099;48.806;9.160;2022-12-13T12:01:19;3.60;99.90
1301;DHT22;59099;48.806;9.160;2022-12-13T12:07:13;3.20;99.90
1301;DHT22;59099;48.806;9.160;2022-12-13T12:09:49;3.10;99.90
1301;DHT22;59099;48.806;9.160;2022-12-13T12:12:32;3.10;99.90
1301;DHT22;59099;48.806;9.160;2022-12-13T12:17:45;3.10;99.90
1301;DHT22;59099;48.806;9.160;2022-12-13T12:20:18;3.20;99.90
1301;DHT22;59099;48.806;9.160;2022-12-13T12:26:25;3.50;99.90
1301;DHT22;59099;48.806;9.160;2022-12-13T12:28:59;3.80;99.90
1301;DHT22;59099;48.806;9.160;2022-12-13T12:34:59;4.10;99.90
1301;DHT22;59099;48.806;9.160;2022-12-13T12:37:33;4.20;99.90
1301;DHT22;59099;48.806;9.160;2022-12-13T12:43:31;4.00;99.90
1301;DHT22;59099;48.806;9.160;2022-12-13T12:46:24;3.90;99.90
1301;DHT22;59099;48.806;9.160;2022-12-13T12:56:58;3.70;99.90
1301;DHT22;59099;48.806;9.160;2022-12-13T13:05:12;4.00;99.90
1301;DHT22;59099;48.806;9.160;2022-12-13T13:07:45;3.90;99.90
1301;DHT22;59099;48.806;9.160;2022-12-13T13:10:13;3.70;99.90
1301;DHT22;59099;48.806;9.160;2022-12-13T13:12:40;3.90;99.90
1301;DHT22;59099;48.806;9.160;2022-12-13T13:17:56;4.20;99.90
1301;DHT22;59099;48.806;9.160;2022-12-13T13:20:23;4.30;99.90
1301;DHT22;59099;48.806;9.160;2022-12-13T13:22:52;4.70;99.90
1301;DHT22;59099;48.806;9.160;2022-12-13T13:27:48;5.00;99.90
1301;DHT22;59099;48.806;9.160;2022-12-13T13:30:22;5.00;99.90
1301;DHT22;59099;48.806;9.160;2022-12-13T13:32:50;4.70;99.90
1301;DHT22;59099;48.806;9.160;2022-12-13T13:37:59;4.40;99.90
1301;DHT22;59099;48.806;9.160;2022-12-13T13:40:35;4.20;99.90
1301;DHT22;59099;48.806;9.160;2022-12-13T14:05:38;2.20;99.90
1301;DHT22;59099;48.806;9.160;2022-12-13T14:08:26;2.10;99.90
1301;DHT22;59099;48.806;9.160;2022-12-13T14:13:58;1.90;99.90
1301;DHT22;59099;48.806;9.160;2022-12-13T14:16:57;1.70;99.90
1301;DHT22;59099;48.806;9.160;2022-12-13T14:22:42;1.50;99.90
1301;DHT22;59099;48.806;9.160;2022-12-13T14:30:32;1.00;99.90
1301;DHT22;59099;48.806;9.160;2022-12-13T14:33:02;1.00;99.90
1301;DHT22;59099;48.806;9.160;2022-12-13T14:35:30;1.00;99.90
1301;DHT22;59099;48.806;9.160;2022-12-13T14:38:03;1.00;99.90
1301;DHT22;59099;48.806;9.160;2022-12-13T14:40:34;0.90;99.90
1301;DHT22;59099;48.806;9.160;2022-12-13T14:43:02;1.00;99.90
1301;DHT22;59099;48.806;9.160;2022-12-13T14:45:32;1.00;99.90
1301;DHT22;59099;48.806;9.160;2022-12-13T14:48:00;1.00;99.90
1301;DHT22;59099;48.806;9.160;2022-12-13T14:50:32;0.90;99.90
1301;DHT22;59099;48.806;9.160;2022-12-13T14:53:00;0.80;99.90
1301;DHT22;59099;48.806;9.160;2022-12-13T14:55:30;0.80;99.90
1301;DHT22;59099;48.806;9.160;2022-12-13T14:57:58;0.70;99.90
1301;DHT22;59099;48.806;9.160;2022-12-13T15:00:38;0.70;99.90
1301;DHT22;59099;48.806;9.160;2022-12-13T15:03:04;0.60;99.90
1301;DHT22;59099;48.806;9.160;2022-12-13T15:05:43;0.60;99.90
1301;DHT22;59099;48.806;9.160;2022-12-13T15:08:15;0.50;99.90
1301;DHT22;59099;48.806;9.160;2022-12-13T15:10:59;0.40;99.90
1301;DHT22;59099;48.806;9.160;2022-12-13T15:13:43;0.40;99.90
1301;DHT22;59099;48.806;9.160;2022-12-13T15:16:24;0.30;99.90
1301;DHT22;59099;48.806;9.160;2022-12-13T15:19:12;0.20;99.90
1301;DHT22;59099;48.806;9.160;2022-12-13T15:21:55;0.20;99.90
1301;DHT22;59099;48.806;9.160;2022-12-13T15:24:28;0.10;99.90
1301;DHT22;59099;48.806;9.160;2022-12-13T15:26:57;0.00;99.90
1301;DHT22;59099;48.806;9.160;2022-12-13T15:29:26;0.00;99.90
1301;DHT22;59099;48.806;9.160;2022-12-13T15:31:54;-0.10;99.90
1301;DHT22;59099;48.806;9.160;2022-12-13T15:36:54;-0.20;99.90
1301;DHT22;59099;48.806;9.160;2022-12-13T15:39:22;-0.10;99.90
1301;DHT22;59099;48.806;9.160;2022-12-13T15:41:49;-0.10;99.90
1301;DHT22;59099;48.806;9.160;2022-12-13T15:44:29;-0.20;99.90
1301;DHT22;59099;48.806;9.160;2022-12-13T15:47:13;-0.20;99.90
1301;DHT22;59099;48.806;9.160;2022-12-13T15:49:44;-0.20;99.90
1301;DHT22;59099;48.806;9.160;2022-12-13T15:54:43;-0.30;99.90
1301;DHT22;59099;48.806;9.160;2022-12-13T15:57:26;-0.30;99.90
1301;DHT22;59099;48.806;9.160;2022-12-13T16:00:06;-0.30;99.90
1301;DHT22;59099;48.806;9.160;2022-12-13T16:02:54;-0.40;99.90
1301;DHT22;59099;48.806;9.160;2022-12-13T16:05:29;-0.40;99.90
1301;DHT22;59099;48.806;9.160;2022-12-13T16:07:59;-0.40;99.90
1301;DHT22;59099;48.806;9.160;2022-12-13T16:10:25;-0.40;99.90
1301;DHT22;59099;48.806;9.160;2022-12-13T16:13:03;-0.40;99.90
1301;DHT22;59099;48.806;9.160;2022-12-13T16:15:31;-0.50;99.90
1301;DHT22;59099;48.806;9.160;2022-12-13T16:18:23;-0.50;99.90
1301;DHT22;59099;48.806;9.160;2022-12-13T16:20:50;-0.50;99.90
1301;DHT22;59099;48.806;9.160;2022-12-13T16:23:17;-0.50;99.90
1301;DHT22;59099;48.806;9.160;2022-12-13T16:25:47;-0.50;99.90
1301;DHT22;59099;48.806;9.160;2022-12-13T16:28:15;-0.50;99.90
1301;DHT22;59099;48.806;9.160;2022-12-13T16:31:01;-0.60;99.90
1301;DHT22;59099;48.806;9.160;2022-12-13T16:33:28;-0.50;99.90
1301;DHT22;59099;48.806;9.160;2022-12-13T16:35:55;-0.50;99.90
1301;DHT22;59099;48.806;9.160;2022-12-13T16:38:21;-0.50;99.90
1301;DHT22;59099;48.806;9.160;2022-12-13T16:40:50;-0.50;99.90
1301;DHT22;59099;48.806;9.160;2022-12-13T16:43:19;-0.60;99.90
1301;DHT22;59099;48.806;9.160;2022-12-13T16:45:50;-0.60;99.90
1301;DHT22;59099;48.806;9.160;2022-12-13T16:48:18;-0.60;99.90
1301;DHT22;59099;48.806;9.160;2022-12-13T16:50:46;-0.60;99.90
1301;DHT22;59099;48.806;9.160;2022-12-13T16:53:12;-0.60;99.90
1301;DHT22;59099;48.806;9.160;2022-12-13T16:55:40;-0.60;99.90
1301;DHT22;59099;48.806;9.160;2022-12-13T16:58:10;-0.60;99.90
1301;DHT22;59099;48.806;9.160;2022-12-13T17:00:36;-0.60;99.90
1301;DHT22;59099;48.806;9.160;2022-12-13T17:03:03;-0.60;99.90
1301;DHT22;59099;48.806;9.160;2022-12-13T17:05:32;-0.60;99.90
1301;DHT22;59099;48.806;9.160;2022-12-13T17:07:59;-0.70;99.90
1301;DHT22;59099;48.806;9.160;2022-12-13T17:10:25;-0.70;99.90
1301;DHT22;59099;48.806;9.160;2022-12-13T17:12:52;-0.70;99.90
1301;DHT22;59099;48.806;9.160;2022-12-13T17:15:18;-0.80;99.90
1301;DHT22;59099;48.806;9.160;2022-12-13T17:17:45;-0.80;99.90
1301;DHT22;59099;48.806;9.160;2022-12-13T17:20:14;-0.80;99.90
1301;DHT22;59099;48.806;9.160;2022-12-13T17:22:41;-0.80;99.90
1301;DHT22;59099;48.806;9.160;2022-12-13T17:25:07;-0.90;99.90
1301;DHT22;59099;48.806;9.160;2022-12-13T17:27:34;-0.90;99.90
1301;DHT22;59099;48.806;9.160;2022-12-13T17:30:00;-0.90;99.90
1301;DHT22;59099;48.806;9.160;2022-12-13T17:32:27;-0.90;99.90
1301;DHT22;59099;48.806;9.160;2022-12-13T17:34:52;-1.00;99.90
1301;DHT22;59099;48.806;9.160;2022-12-13T17:37:18;-1.00;99.90
1301;DHT22;59099;48.806;9.160;2022-12-13T17:39:44;-0.90;99.90
1301;DHT22;59099;48.806;9.160;2022-12-13T17:42:10;-1.00;99.90
1301;DHT22;59099;48.806;9.160;2022-12-13T17:44:36;-0.90;99.90
1301;DHT22;59099;48.806;9.160;2022-12-13T17:47:02;-0.90;99.90
1301;DHT22;59099;48.806;9.160;2022-12-13T17:49:28;-1.00;99.90
1301;DHT22;59099;48.806;9.160;2022-12-13T17:51:54;-1.00;99.90
1301;DHT22;59099;48.806;9.160;2022-12-13T17:54:21;-1.10;99.90